sensor_id;sensor_type;location;lat;lon;timestamp;P1;durP1;ratioP1;P2;durP2;ratioP2
3197;SDS011;1611;49.394;11.136;2023-11-21T00:01:54;8.77;;;1.93;;
3197;SDS011;1611;49.394;11.136;2023-11-21T00:04:22;4.43;;;1.77;;
3197;SDS011;1611;49.394;11.136;2023-11-21T00:06:50;6.33;;;1.90;;
3197;SDS011;1611;49.394;11.136;2023-11-21T00:09:17;8.93;;;1.70;;
3197;SDS011;1611;49.394;11.136;2023-11-21T00:11:45;3.35;;;1.67;;
3197;SDS011;1611;49.394;11.136;2023-11-21T00:14:11;3.57;;;1.50;;
3197;SDS011;1611;49.394;11.136;2023-11-21T00:16:39;1.63;;;1.43;;
3197;SDS011;1611;49.394;11.136;2023-11-21T00:19:06;4.00;;;1.90;;
3197;SDS011;1611;49.394;11.136;2023-11-21T00:21:33;6.30;;;1.90;;
3197;SDS011;1611;49.394;11.136;2023-11-21T00:24:01;8.00;;;1.80;;
3197;SDS011;1611;49.394;11.136;2023-11-21T00:26:28;3.17;;;1.83;;
3197;SDS011;1611;49.394;11.136;2023-11-21T00:28:56;3.27;;;1.30;;
3197;SDS011;1611;49.394;11.136;2023-11-21T00:31:22;2.23;;;1.70;;
3197;SDS011;1611;49.394;11.136;2023-11-21T00:33:48;8.00;;;2.00;;
3197;SDS011;1611;49.394;11.136;2023-11-21T00:36:15;1.70;;;1.60;;
3197;SDS011;1611;49.394;11.136;2023-11-21T00:38:42;4.23;;;2.13;;
3197;SDS011;1611;49.394;11.136;2023-11-21T00:41:10;3.33;;;1.88;;
3197;SDS011;1611;49.394;11.136;2023-11-21T00:43:36;1.90;;;1.80;;
3197;SDS011;1611;49.394;11.136;2023-11-21T00:46:04;3.40;;;2.30;;
3197;SDS011;1611;49.394;11.136;2023-11-21T00:48:32;3.37;;;2.00;;
3197;SDS011;1611;49.394;11.136;2023-11-21T00:50:59;3.13;;;2.10;;
3197;SDS011;1611;49.394;11.136;2023-11-21T00:53:25;3.10;;;2.10;;
3197;SDS011;1611;49.394;11.136;2023-11-21T00:55:52;5.00;;;2.23;;
3197;SDS011;1611;49.394;11.136;2023-11-21T00:58:24;4.50;;;2.63;;
3197;SDS011;1611;49.394;11.136;2023-11-21T01:00:51;3.60;;;2.10;;
3197;SDS011;1611;49.394;11.136;2023-11-21T01:03:17;4.23;;;2.10;;
3197;SDS011;1611;49.394;11.136;2023-11-21T01:05:44;5.07;;;1.90;;
3197;SDS011;1611;49.394;11.136;2023-11-21T01:08:11;3.40;;;2.37;;
3197;SDS011;1611;49.394;11.136;2023-11-21T01:10:38;4.10;;;2.20;;
3197;SDS011;1611;49.394;11.136;2023-11-21T01:13:05;8.27;;;2.33;;
3197;SDS011;1611;49.394;11.136;2023-11-21T01:15:33;3.87;;;2.50;;
3197;SDS011;1611;49.394;11.136;2023-11-21T01:18:00;2.40;;;2.20;;
3197;SDS011;1611;49.394;11.136;2023-11-21T01:20:28;2.87;;;2.13;;
3197;SDS011;1611;49.394;11.136;2023-11-21T01:22:55;4.50;;;1.87;;
3197;SDS011;1611;49.394;11.136;2023-11-21T01:25:22;6.77;;;2.20;;
3197;SDS011;1611;49.394;11.136;2023-11-21T01:27:48;4.22;;;2.00;;
3197;SDS011;1611;49.394;11.136;2023-11-21T01:30:15;2.77;;;2.20;;
3197;SDS011;1611;49.394;11.136;2023-11-21T01:32:43;7.20;;;2.73;;
3197;SDS011;1611;49.394;11.136;2023-11-21T01:35:10;5.83;;;2.10;;
3197;SDS011;1611;49.394;11.136;2023-11-21T01:37:37;3.43;;;1.80;;
3197;SDS011;1611;49.394;11.136;2023-11-21T01:40:04;2.45;;;1.95;;
3197;SDS011;1611;49.394;11.136;2023-11-21T01:42:35;4.20;;;2.87;;
3197;SDS011;1611;49.394;11.136;2023-11-21T01:45:01;2.40;;;2.10;;
3197;SDS011;1611;49.394;11.136;2023-11-21T01:47:30;4.75;;;2.17;;
3197;SDS011;1611;49.394;11.136;2023-11-21T01:49:58;4.47;;;1.83;;
3197;SDS011;1611;49.394;11.136;2023-11-21T01:52:25;2.03;;;1.83;;
3197;SDS011;1611;49.394;11.136;2023-11-21T01:54:52;2.40;;;1.53;;
3197;SDS011;1611;49.394;11.136;2023-11-21T01:57:19;4.60;;;2.00;;
3197;SDS011;1611;49.394;11.136;2023-11-21T01:59:47;2.23;;;2.00;;
3197;SDS011;1611;49.394;11.136;2023-11-21T02:02:15;3.50;;;1.80;;
3197;SDS011;1611;49.394;11.136;2023-11-21T02:04:42;2.23;;;2.00;;
3197;SDS011;1611;49.394;11.136;2023-11-21T02:07:10;3.33;;;1.60;;
3197;SDS011;1611;49.394;11.136;2023-11-21T02:09:37;2.70;;;1.70;;
3197;SDS011;1611;49.394;11.136;2023-11-21T02:12:07;2.90;;;2.30;;
3197;SDS011;1611;49.394;11.136;2023-11-21T02:14:35;8.10;;;1.87;;
3197;SDS011;1611;49.394;11.136;2023-11-21T02:17:02;6.67;;;2.30;;
3197;SDS011;1611;49.394;11.136;2023-11-21T02:19:29;2.37;;;1.83;;
3197;SDS011;1611;49.394;11.136;2023-11-21T02:21:57;2.10;;;2.00;;
3197;SDS011;1611;49.394;11.136;2023-11-21T02:24:29;5.70;;;1.87;;
3197;SDS011;1611;49.394;11.136;2023-11-21T02:26:56;4.17;;;2.00;;
3197;SDS011;1611;49.394;11.136;2023-11-21T02:29:23;3.33;;;1.83;;
3197;SDS011;1611;49.394;11.136;2023-11-21T02:31:54;6.03;;;2.30;;
3197;SDS011;1611;49.394;11.136;2023-11-21T02:34:21;7.63;;;2.10;;
3197;SDS011;1611;49.394;11.136;2023-11-21T02:36:49;3.97;;;1.77;;
3197;SDS011;1611;49.394;11.136;2023-11-21T02:39:17;1.70;;;1.60;;
3197;SDS011;1611;49.394;11.136;2023-11-21T02:41:48;4.10;;;1.80;;
3197;SDS011;1611;49.394;11.136;2023-11-21T02:44:15;4.43;;;1.57;;
3197;SDS011;1611;49.394;11.136;2023-11-21T02:46:41;4.83;;;2.20;;
3197;SDS011;1611;49.394;11.136;2023-11-21T02:49:08;1.90;;;1.60;;
3197;SDS011;1611;49.394;11.136;2023-11-21T02:51:35;4.83;;;1.87;;
3197;SDS011;1611;49.394;11.136;2023-11-21T02:54:03;4.33;;;1.93;;
3197;SDS011;1611;49.394;11.136;2023-11-21T02:56:31;7.80;;;2.57;;
3197;SDS011;1611;49.394;11.136;2023-11-21T02:59:00;3.15;;;2.15;;
3197;SDS011;1611;49.394;11.136;2023-11-21T03:01:27;3.38;;;2.00;;
3197;SDS011;1611;49.394;11.136;2023-11-21T03:03:54;5.70;;;2.10;;
3197;SDS011;1611;49.394;11.136;2023-11-21T03:06:21;4.63;;;1.97;;
3197;SDS011;1611;49.394;11.136;2023-11-21T03:08:48;8.80;;;1.90;;
3197;SDS011;1611;49.394;11.136;2023-11-21T03:11:15;8.38;;;1.90;;
3197;SDS011;1611;49.394;11.136;2023-11-21T03:13:42;6.60;;;2.73;;
3197;SDS011;1611;49.394;11.136;2023-11-21T03:16:11;11.87;;;2.10;;
3197;SDS011;1611;49.394;11.136;2023-11-21T03:18:38;7.33;;;2.47;;
3197;SDS011;1611;49.394;11.136;2023-11-21T03:21:05;3.80;;;1.83;;
3197;SDS011;1611;49.394;11.136;2023-11-21T03:23:33;3.13;;;2.20;;
3197;SDS011;1611;49.394;11.136;2023-11-21T03:26:01;6.75;;;2.08;;
3197;SDS011;1611;49.394;11.136;2023-11-21T03:28:27;5.93;;;2.00;;
3197;SDS011;1611;49.394;11.136;2023-11-21T03:30:55;4.17;;;2.17;;
3197;SDS011;1611;49.394;11.136;2023-11-21T03:33:23;11.23;;;1.73;;
3197;SDS011;1611;49.394;11.136;2023-11-21T03:35:50;4.67;;;1.73;;
3197;SDS011;1611;49.394;11.136;2023-11-21T03:38:17;2.03;;;1.70;;
3197;SDS011;1611;49.394;11.136;2023-11-21T03:40:45;2.83;;;1.65;;
3197;SDS011;1611;49.394;11.136;2023-11-21T03:43:12;4.30;;;2.07;;
3197;SDS011;1611;49.394;11.136;2023-11-21T03:45:39;10.63;;;1.93;;
3197;SDS011;1611;49.394;11.136;2023-11-21T03:48:06;3.43;;;2.10;;
3197;SDS011;1611;49.394;11.136;2023-11-21T03:50:35;5.40;;;2.30;;
3197;SDS011;1611;49.394;11.136;2023-11-21T03:53:01;2.80;;;2.13;;
3197;SDS011;1611;49.394;11.136;2023-11-21T03:55:28;5.33;;;1.50;;
3197;SDS011;1611;49.394;11.136;2023-11-21T03:57:56;3.35;;;2.05;;
3197;SDS011;1611;49.394;11.136;2023-11-21T04:00:23;5.63;;;2.30;;
3197;SDS011;1611;49.394;11.136;2023-11-21T04:02:51;6.67;;;1.77;;
3197;SDS011;1611;49.394;11.136;2023-11-21T04:05:19;3.33;;;1.80;;
3197;SDS011;1611;49.394;11.136;2023-11-21T04:07:47;2.40;;;2.20;;
3197;SDS011;1611;49.394;11.136;2023-11-21T04:10:15;2.10;;;1.97;;
3197;SDS011;1611;49.394;11.136;2023-11-21T04:12:41;4.30;;;2.07;;
3197;SDS011;1611;49.394;11.136;2023-11-21T04:15:09;3.67;;;2.17;;
3197;SDS011;1611;49.394;11.136;2023-11-21T04:17:38;3.25;;;2.03;;
3197;SDS011;1611;49.394;11.136;2023-11-21T04:20:05;3.23;;;2.00;;
3197;SDS011;1611;49.394;11.136;2023-11-21T04:22:34;2.95;;;1.70;;
3197;SDS011;1611;49.394;11.136;2023-11-21T04:25:05;3.03;;;2.17;;
3197;SDS011;1611;49.394;11.136;2023-11-21T04:27:32;2.80;;;1.90;;
3197;SDS011;1611;49.394;11.136;2023-11-21T04:29:59;2.47;;;2.07;;
3197;SDS011;1611;49.394;11.136;2023-11-21T04:32:26;7.30;;;1.80;;
3197;SDS011;1611;49.394;11.136;2023-11-21T04:34:53;5.57;;;1.85;;
3197;SDS011;1611;49.394;11.136;2023-11-21T04:37:19;4.90;;;2.10;;
3197;SDS011;1611;49.394;11.136;2023-11-21T04:39:46;4.60;;;2.00;;
3197;SDS011;1611;49.394;11.136;2023-11-21T04:42:14;5.03;;;2.33;;
3197;SDS011;1611;49.394;11.136;2023-11-21T04:44:41;2.93;;;2.60;;
3197;SDS011;1611;49.394;11.136;2023-11-21T04:47:09;2.17;;;2.07;;
3197;SDS011;1611;49.394;11.136;2023-11-21T04:49:35;2.97;;;1.67;;
3197;SDS011;1611;49.394;11.136;2023-11-21T04:52:02;2.83;;;2.00;;
3197;SDS011;1611;49.394;11.136;2023-11-21T04:54:30;3.47;;;2.20;;
3197;SDS011;1611;49.394;11.136;2023-11-21T04:56:57;4.50;;;2.37;;
3197;SDS011;1611;49.394;11.136;2023-11-21T04:59:25;12.17;;;2.97;;
3197;SDS011;1611;49.394;11.136;2023-11-21T05:01:52;6.50;;;2.63;;
3197;SDS011;1611;49.394;11.136;2023-11-21T05:04:19;3.40;;;2.70;;
3197;SDS011;1611;49.394;11.136;2023-11-21T05:06:47;2.70;;;2.17;;
3197;SDS011;1611;49.394;11.136;2023-11-21T05:09:14;3.83;;;2.00;;
3197;SDS011;1611;49.394;11.136;2023-11-21T05:11:41;2.57;;;2.23;;
3197;SDS011;1611;49.394;11.136;2023-11-21T05:14:07;2.13;;;2.03;;
3197;SDS011;1611;49.394;11.136;2023-11-21T05:16:36;2.60;;;1.90;;
3197;SDS011;1611;49.394;11.136;2023-11-21T05:19:03;7.00;;;2.30;;
3197;SDS011;1611;49.394;11.136;2023-11-21T05:21:30;2.40;;;2.20;;
3197;SDS011;1611;49.394;11.136;2023-11-21T05:23:57;2.43;;;2.17;;
3197;SDS011;1611;49.394;11.136;2023-11-21T05:26:24;3.50;;;2.30;;
3197;SDS011;1611;49.394;11.136;2023-11-21T05:28:51;4.47;;;2.37;;
3197;SDS011;1611;49.394;11.136;2023-11-21T05:31:18;4.73;;;2.50;;
3197;SDS011;1611;49.394;11.136;2023-11-21T05:33:46;3.13;;;2.80;;
3197;SDS011;1611;49.394;11.136;2023-11-21T05:36:13;4.63;;;2.80;;
3197;SDS011;1611;49.394;11.136;2023-11-21T05:38:40;4.93;;;2.77;;
3197;SDS011;1611;49.394;11.136;2023-11-21T05:41:07;7.47;;;2.50;;
3197;SDS011;1611;49.394;11.136;2023-11-21T05:43:36;4.45;;;2.88;;
3197;SDS011;1611;49.394;11.136;2023-11-21T05:46:02;2.57;;;2.37;;
3197;SDS011;1611;49.394;11.136;2023-11-21T05:48:30;5.50;;;2.40;;
3197;SDS011;1611;49.394;11.136;2023-11-21T05:50:58;3.85;;;2.45;;
3197;SDS011;1611;49.394;11.136;2023-11-21T05:53:26;3.63;;;2.70;;
3197;SDS011;1611;49.394;11.136;2023-11-21T05:55:53;3.30;;;2.40;;
3197;SDS011;1611;49.394;11.136;2023-11-21T05:58:19;6.33;;;2.40;;
3197;SDS011;1611;49.394;11.136;2023-11-21T06:00:46;7.67;;;3.50;;
3197;SDS011;1611;49.394;11.136;2023-11-21T06:03:12;5.43;;;3.50;;
3197;SDS011;1611;49.394;11.136;2023-11-21T06:05:39;7.60;;;3.20;;
3197;SDS011;1611;49.394;11.136;2023-11-21T06:08:07;7.73;;;3.03;;
3197;SDS011;1611;49.394;11.136;2023-11-21T06:10:35;3.10;;;2.57;;
3197;SDS011;1611;49.394;11.136;2023-11-21T06:13:02;7.70;;;2.67;;
3197;SDS011;1611;49.394;11.136;2023-11-21T06:15:29;3.63;;;3.10;;
3197;SDS011;1611;49.394;11.136;2023-11-21T06:17:56;3.17;;;2.30;;
3197;SDS011;1611;49.394;11.136;2023-11-21T06:20:23;6.23;;;2.80;;
3197;SDS011;1611;49.394;11.136;2023-11-21T06:22:50;4.20;;;3.17;;
3197;SDS011;1611;49.394;11.136;2023-11-21T06:25:19;4.20;;;3.40;;
3197;SDS011;1611;49.394;11.136;2023-11-21T06:27:46;4.23;;;3.30;;
3197;SDS011;1611;49.394;11.136;2023-11-21T06:30:14;6.20;;;3.37;;
3197;SDS011;1611;49.394;11.136;2023-11-21T06:32:41;4.77;;;3.30;;
3197;SDS011;1611;49.394;11.136;2023-11-21T06:35:10;6.00;;;3.47;;
3197;SDS011;1611;49.394;11.136;2023-11-21T06:37:38;3.83;;;3.50;;
3197;SDS011;1611;49.394;11.136;2023-11-21T06:40:05;3.38;;;3.17;;
3197;SDS011;1611;49.394;11.136;2023-11-21T06:42:36;4.23;;;3.27;;
3197;SDS011;1611;49.394;11.136;2023-11-21T06:45:04;3.43;;;3.13;;
3197;SDS011;1611;49.394;11.136;2023-11-21T06:47:31;6.37;;;3.50;;
3197;SDS011;1611;49.394;11.136;2023-11-21T06:49:58;4.17;;;3.63;;
3197;SDS011;1611;49.394;11.136;2023-11-21T06:52:25;8.23;;;4.10;;
3197;SDS011;1611;49.394;11.136;2023-11-21T06:54:52;10.63;;;3.70;;
3197;SDS011;1611;49.394;11.136;2023-11-21T06:57:19;6.33;;;3.30;;
3197;SDS011;1611;49.394;11.136;2023-11-21T06:59:48;4.23;;;3.83;;
3197;SDS011;1611;49.394;11.136;2023-11-21T07:02:15;4.50;;;3.70;;
3197;SDS011;1611;49.394;11.136;2023-11-21T07:04:43;6.80;;;3.57;;
3197;SDS011;1611;49.394;11.136;2023-11-21T07:07:10;4.83;;;4.00;;
3197;SDS011;1611;49.394;11.136;2023-11-21T07:09:37;7.50;;;3.63;;
3197;SDS011;1611;49.394;11.136;2023-11-21T07:12:04;4.00;;;3.73;;
3197;SDS011;1611;49.394;11.136;2023-11-21T07:14:32;8.00;;;4.37;;
3197;SDS011;1611;49.394;11.136;2023-11-21T07:17:00;6.33;;;3.80;;
3197;SDS011;1611;49.394;11.136;2023-11-21T07:19:27;6.50;;;4.60;;
3197;SDS011;1611;49.394;11.136;2023-11-21T07:21:54;5.77;;;4.73;;
3197;SDS011;1611;49.394;11.136;2023-11-21T07:24:21;6.63;;;5.40;;
3197;SDS011;1611;49.394;11.136;2023-11-21T07:26:48;6.63;;;5.90;;
3197;SDS011;1611;49.394;11.136;2023-11-21T07:29:15;6.77;;;5.40;;
3197;SDS011;1611;49.394;11.136;2023-11-21T07:31:42;7.03;;;5.07;;
3197;SDS011;1611;49.394;11.136;2023-11-21T07:34:10;6.20;;;4.87;;
3197;SDS011;1611;49.394;11.136;2023-11-21T07:36:37;10.37;;;4.23;;
3197;SDS011;1611;49.394;11.136;2023-11-21T07:39:04;8.20;;;4.13;;
3197;SDS011;1611;49.394;11.136;2023-11-21T07:41:31;9.27;;;5.13;;
3197;SDS011;1611;49.394;11.136;2023-11-21T07:43:58;12.65;;;5.10;;
3197;SDS011;1611;49.394;11.136;2023-11-21T07:46:25;6.30;;;5.77;;
3197;SDS011;1611;49.394;11.136;2023-11-21T07:48:52;9.23;;;5.70;;
3197;SDS011;1611;49.394;11.136;2023-11-21T07:51:21;4.83;;;4.43;;
3197;SDS011;1611;49.394;11.136;2023-11-21T07:53:48;12.50;;;8.03;;
3197;SDS011;1611;49.394;11.136;2023-11-21T07:56:15;7.28;;;5.60;;
3197;SDS011;1611;49.394;11.136;2023-11-21T07:58:41;6.40;;;4.90;;
3197;SDS011;1611;49.394;11.136;2023-11-21T08:01:09;7.03;;;4.73;;
3197;SDS011;1611;49.394;11.136;2023-11-21T08:03:36;11.82;;;4.75;;
3197;SDS011;1611;49.394;11.136;2023-11-21T08:06:03;7.20;;;4.80;;
3197;SDS011;1611;49.394;11.136;2023-11-21T08:08:33;11.07;;;5.00;;
3197;SDS011;1611;49.394;11.136;2023-11-21T08:10:59;7.50;;;4.53;;
3197;SDS011;1611;49.394;11.136;2023-11-21T08:13:27;9.17;;;4.00;;
3197;SDS011;1611;49.394;11.136;2023-11-21T08:15:56;7.53;;;4.40;;
3197;SDS011;1611;49.394;11.136;2023-11-21T08:18:26;4.60;;;4.30;;
3197;SDS011;1611;49.394;11.136;2023-11-21T08:20:54;3.80;;;3.50;;
3197;SDS011;1611;49.394;11.136;2023-11-21T08:23:21;16.20;;;7.20;;
3197;SDS011;1611;49.394;11.136;2023-11-21T08:25:51;15.60;;;7.17;;
3197;SDS011;1611;49.394;11.136;2023-11-21T08:28:19;13.17;;;6.63;;
3197;SDS011;1611;49.394;11.136;2023-11-21T08:30:47;19.13;;;6.53;;
3197;SDS011;1611;49.394;11.136;2023-11-21T08:33:14;19.50;;;7.67;;
3197;SDS011;1611;49.394;11.136;2023-11-21T08:35:40;17.40;;;6.50;;
3197;SDS011;1611;49.394;11.136;2023-11-21T08:38:07;20.43;;;4.57;;
3197;SDS011;1611;49.394;11.136;2023-11-21T08:40:35;5.30;;;4.03;;
3197;SDS011;1611;49.394;11.136;2023-11-21T08:43:03;8.10;;;4.07;;
3197;SDS011;1611;49.394;11.136;2023-11-21T08:45:30;5.70;;;4.17;;
3197;SDS011;1611;49.394;11.136;2023-11-21T08:47:59;3.47;;;3.27;;
3197;SDS011;1611;49.394;11.136;2023-11-21T08:50:26;3.60;;;3.30;;
3197;SDS011;1611;49.394;11.136;2023-11-21T08:52:53;4.27;;;3.87;;
3197;SDS011;1611;49.394;11.136;2023-11-21T08:55:20;3.87;;;3.00;;
3197;SDS011;1611;49.394;11.136;2023-11-21T08:57:47;4.97;;;3.73;;
3197;SDS011;1611;49.394;11.136;2023-11-21T09:00:16;4.10;;;3.50;;
3197;SDS011;1611;49.394;11.136;2023-11-21T09:02:43;5.13;;;3.50;;
3197;SDS011;1611;49.394;11.136;2023-11-21T09:05:11;4.60;;;4.13;;
3197;SDS011;1611;49.394;11.136;2023-11-21T09:07:38;4.57;;;4.17;;
3197;SDS011;1611;49.394;11.136;2023-11-21T09:10:06;4.63;;;4.23;;
3197;SDS011;1611;49.394;11.136;2023-11-21T09:12:34;10.53;;;4.10;;
3197;SDS011;1611;49.394;11.136;2023-11-21T09:15:02;10.33;;;5.37;;
3197;SDS011;1611;49.394;11.136;2023-11-21T09:17:31;5.20;;;4.70;;
3197;SDS011;1611;49.394;11.136;2023-11-21T09:19:59;6.50;;;5.90;;
3197;SDS011;1611;49.394;11.136;2023-11-21T09:22:26;5.83;;;4.97;;
3197;SDS011;1611;49.394;11.136;2023-11-21T09:24:54;5.80;;;5.30;;
3197;SDS011;1611;49.394;11.136;2023-11-21T09:27:22;8.00;;;5.50;;
3197;SDS011;1611;49.394;11.136;2023-11-21T09:29:50;6.03;;;5.43;;
3197;SDS011;1611;49.394;11.136;2023-11-21T09:32:17;14.80;;;5.57;;
3197;SDS011;1611;49.394;11.136;2023-11-21T09:34:47;8.83;;;5.60;;
3197;SDS011;1611;49.394;11.136;2023-11-21T09:37:14;9.20;;;6.70;;
3197;SDS011;1611;49.394;11.136;2023-11-21T09:39:41;6.13;;;5.60;;
3197;SDS011;1611;49.394;11.136;2023-11-21T09:42:10;10.43;;;6.43;;
3197;SDS011;1611;49.394;11.136;2023-11-21T09:44:43;7.80;;;6.03;;
3197;SDS011;1611;49.394;11.136;2023-11-21T09:47:14;9.03;;;6.47;;
3197;SDS011;1611;49.394;11.136;2023-11-21T09:49:42;9.30;;;7.07;;
3197;SDS011;1611;49.394;11.136;2023-11-21T09:52:17;7.50;;;6.80;;
3197;SDS011;1611;49.394;11.136;2023-11-21T09:54:50;9.00;;;7.03;;
3197;SDS011;1611;49.394;11.136;2023-11-21T09:57:18;9.60;;;7.17;;
3197;SDS011;1611;49.394;11.136;2023-11-21T09:59:47;8.17;;;7.47;;
3197;SDS011;1611;49.394;11.136;2023-11-21T10:02:17;7.13;;;6.50;;
3197;SDS011;1611;49.394;11.136;2023-11-21T10:04:46;7.33;;;6.63;;
3197;SDS011;1611;49.394;11.136;2023-11-21T10:07:13;8.07;;;7.20;;
3197;SDS011;1611;49.394;11.136;2023-11-21T10:09:45;8.43;;;7.70;;
3197;SDS011;1611;49.394;11.136;2023-11-21T10:12:13;6.80;;;6.23;;
3197;SDS011;1611;49.394;11.136;2023-11-21T10:14:42;9.63;;;6.93;;
3197;SDS011;1611;49.394;11.136;2023-11-21T10:17:10;19.83;;;7.20;;
3197;SDS011;1611;49.394;11.136;2023-11-21T10:19:38;13.47;;;6.80;;
3197;SDS011;1611;49.394;11.136;2023-11-21T10:22:05;14.00;;;8.60;;
3197;SDS011;1611;49.394;11.136;2023-11-21T10:24:35;9.83;;;7.40;;
3197;SDS011;1611;49.394;11.136;2023-11-21T10:27:03;13.60;;;8.07;;
3197;SDS011;1611;49.394;11.136;2023-11-21T10:29:30;7.20;;;6.50;;
3197;SDS011;1611;49.394;11.136;2023-11-21T10:32:00;10.43;;;7.60;;
3197;SDS011;1611;49.394;11.136;2023-11-21T10:34:28;9.10;;;7.73;;
3197;SDS011;1611;49.394;11.136;2023-11-21T10:36:55;9.17;;;5.97;;
3197;SDS011;1611;49.394;11.136;2023-11-21T10:39:23;7.50;;;6.70;;
3197;SDS011;1611;49.394;11.136;2023-11-21T10:41:54;13.40;;;6.10;;
3197;SDS011;1611;49.394;11.136;2023-11-21T10:44:21;9.27;;;5.13;;
3197;SDS011;1611;49.394;11.136;2023-11-21T10:46:49;7.57;;;5.10;;
3197;SDS011;1611;49.394;11.136;2023-11-21T10:49:17;6.57;;;5.53;;
3197;SDS011;1611;49.394;11.136;2023-11-21T10:51:45;6.20;;;4.30;;
3197;SDS011;1611;49.394;11.136;2023-11-21T10:54:16;12.10;;;3.97;;
3197;SDS011;1611;49.394;11.136;2023-11-21T10:56:43;4.70;;;3.90;;
3197;SDS011;1611;49.394;11.136;2023-11-21T10:59:13;4.70;;;4.30;;
3197;SDS011;1611;49.394;11.136;2023-11-21T11:01:41;6.50;;;4.77;;
3197;SDS011;1611;49.394;11.136;2023-11-21T11:04:11;6.27;;;4.60;;
3197;SDS011;1611;49.394;11.136;2023-11-21T11:06:41;6.03;;;4.20;;
3197;SDS011;1611;49.394;11.136;2023-11-21T11:09:09;4.20;;;3.73;;
3197;SDS011;1611;49.394;11.136;2023-11-21T11:11:38;4.30;;;3.90;;
3197;SDS011;1611;49.394;11.136;2023-11-21T11:14:06;5.97;;;3.57;;
3197;SDS011;1611;49.394;11.136;2023-11-21T11:16:36;15.53;;;4.37;;
3197;SDS011;1611;49.394;11.136;2023-11-21T11:19:05;12.77;;;4.00;;
3197;SDS011;1611;49.394;11.136;2023-11-21T11:21:34;8.90;;;3.03;;
3197;SDS011;1611;49.394;11.136;2023-11-21T11:24:13;3.57;;;3.27;;
3197;SDS011;1611;49.394;11.136;2023-11-21T11:26:56;4.07;;;3.50;;
3197;SDS011;1611;49.394;11.136;2023-11-21T11:29:29;7.03;;;3.27;;
3197;SDS011;1611;49.394;11.136;2023-11-21T11:32:06;2.70;;;2.60;;
3197;SDS011;1611;49.394;11.136;2023-11-21T11:34:40;2.47;;;2.37;;
3197;SDS011;1611;49.394;11.136;2023-11-21T11:37:11;3.37;;;3.00;;
3197;SDS011;1611;49.394;11.136;2023-11-21T11:39:40;3.30;;;3.10;;
3197;SDS011;1611;49.394;11.136;2023-11-21T11:42:10;2.97;;;2.77;;
3197;SDS011;1611;49.394;11.136;2023-11-21T11:44:49;4.03;;;2.80;;
3197;SDS011;1611;49.394;11.136;2023-11-21T11:47:23;9.17;;;3.50;;
3197;SDS011;1611;49.394;11.136;2023-11-21T11:49:58;3.43;;;3.13;;
3197;SDS011;1611;49.394;11.136;2023-11-21T11:52:36;4.10;;;3.47;;
3197;SDS011;1611;49.394;11.136;2023-11-21T11:55:05;3.60;;;3.30;;
3197;SDS011;1611;49.394;11.136;2023-11-21T11:57:35;2.83;;;2.53;;
3197;SDS011;1611;49.394;11.136;2023-11-21T12:00:16;3.20;;;3.00;;
3197;SDS011;1611;49.394;11.136;2023-11-21T12:02:51;9.13;;;3.87;;
3197;SDS011;1611;49.394;11.136;2023-11-21T12:05:22;3.80;;;3.50;;
3197;SDS011;1611;49.394;11.136;2023-11-21T12:07:53;3.03;;;2.70;;
3197;SDS011;1611;49.394;11.136;2023-11-21T12:10:22;5.80;;;3.73;;
3197;SDS011;1611;49.394;11.136;2023-11-21T12:12:51;7.93;;;3.50;;
3197;SDS011;1611;49.394;11.136;2023-11-21T12:15:18;5.67;;;3.17;;
3197;SDS011;1611;49.394;11.136;2023-11-21T12:17:46;3.50;;;3.10;;
3197;SDS011;1611;49.394;11.136;2023-11-21T12:20:15;3.97;;;3.23;;
3197;SDS011;1611;49.394;11.136;2023-11-21T12:22:45;3.17;;;3.07;;
3197;SDS011;1611;49.394;11.136;2023-11-21T12:25:14;5.07;;;4.07;;
3197;SDS011;1611;49.394;11.136;2023-11-21T12:27:43;2.77;;;2.63;;
3197;SDS011;1611;49.394;11.136;2023-11-21T12:30:11;7.20;;;4.40;;
3197;SDS011;1611;49.394;11.136;2023-11-21T12:32:40;3.03;;;2.87;;
3197;SDS011;1611;49.394;11.136;2023-11-21T12:35:08;2.80;;;2.60;;
3197;SDS011;1611;49.394;11.136;2023-11-21T12:37:37;3.70;;;3.40;;
3197;SDS011;1611;49.394;11.136;2023-11-21T12:40:05;3.40;;;2.80;;
3197;SDS011;1611;49.394;11.136;2023-11-21T12:42:36;3.57;;;2.93;;
3197;SDS011;1611;49.394;11.136;2023-11-21T12:45:06;4.13;;;2.50;;
3197;SDS011;1611;49.394;11.136;2023-11-21T12:47:39;3.00;;;2.70;;
3197;SDS011;1611;49.394;11.136;2023-11-21T12:50:06;4.00;;;3.60;;
3197;SDS011;1611;49.394;11.136;2023-11-21T12:52:40;5.10;;;3.40;;
3197;SDS011;1611;49.394;11.136;2023-11-21T12:55:15;4.73;;;3.30;;
3197;SDS011;1611;49.394;11.136;2023-11-21T12:57:43;6.67;;;3.77;;
3197;SDS011;1611;49.394;11.136;2023-11-21T13:00:12;5.40;;;3.40;;
3197;SDS011;1611;49.394;11.136;2023-11-21T13:02:52;2.97;;;2.87;;
3197;SDS011;1611;49.394;11.136;2023-11-21T13:05:23;4.30;;;3.47;;
3197;SDS011;1611;49.394;11.136;2023-11-21T13:07:51;3.67;;;3.37;;
3197;SDS011;1611;49.394;11.136;2023-11-21T13:10:19;4.37;;;3.97;;
3197;SDS011;1611;49.394;11.136;2023-11-21T13:12:51;4.00;;;3.70;;
3197;SDS011;1611;49.394;11.136;2023-11-21T13:15:19;5.90;;;4.27;;
3197;SDS011;1611;49.394;11.136;2023-11-21T13:17:46;3.70;;;3.50;;
3197;SDS011;1611;49.394;11.136;2023-11-21T13:20:13;5.23;;;4.27;;
3197;SDS011;1611;49.394;11.136;2023-11-21T13:22:45;4.37;;;3.97;;
3197;SDS011;1611;49.394;11.136;2023-11-21T13:25:15;5.63;;;4.17;;
3197;SDS011;1611;49.394;11.136;2023-11-21T13:27:43;4.77;;;4.37;;
3197;SDS011;1611;49.394;11.136;2023-11-21T13:30:11;5.90;;;3.33;;
3197;SDS011;1611;49.394;11.136;2023-11-21T13:32:40;2.97;;;2.80;;
3197;SDS011;1611;49.394;11.136;2023-11-21T13:35:07;2.83;;;2.17;;
3197;SDS011;1611;49.394;11.136;2023-11-21T13:37:40;4.10;;;3.00;;
3197;SDS011;1611;49.394;11.136;2023-11-21T13:40:07;2.93;;;2.30;;
3197;SDS011;1611;49.394;11.136;2023-11-21T13:42:40;4.13;;;3.10;;
3197;SDS011;1611;49.394;11.136;2023-11-21T13:45:08;2.70;;;2.50;;
3197;SDS011;1611;49.394;11.136;2023-11-21T13:47:37;4.00;;;2.80;;
3197;SDS011;1611;49.394;11.136;2023-11-21T13:50:05;3.53;;;2.40;;
3197;SDS011;1611;49.394;11.136;2023-11-21T13:52:41;2.43;;;2.23;;
3197;SDS011;1611;49.394;11.136;2023-11-21T13:55:10;2.50;;;2.40;;
3197;SDS011;1611;49.394;11.136;2023-11-21T13:57:42;2.70;;;2.50;;
3197;SDS011;1611;49.394;11.136;2023-11-21T14:00:12;4.03;;;2.80;;
3197;SDS011;1611;49.394;11.136;2023-11-21T14:03:00;3.07;;;2.77;;
3197;SDS011;1611;49.394;11.136;2023-11-21T14:05:27;2.90;;;2.50;;
3197;SDS011;1611;49.394;11.136;2023-11-21T14:07:56;4.83;;;3.17;;
3197;SDS011;1611;49.394;11.136;2023-11-21T14:10:28;2.97;;;2.70;;
3197;SDS011;1611;49.394;11.136;2023-11-21T14:13:03;4.40;;;3.03;;
3197;SDS011;1611;49.394;11.136;2023-11-21T14:15:30;4.50;;;3.10;;
3197;SDS011;1611;49.394;11.136;2023-11-21T14:17:58;2.90;;;2.63;;
3197;SDS011;1611;49.394;11.136;2023-11-21T14:20:27;2.77;;;2.50;;
3197;SDS011;1611;49.394;11.136;2023-11-21T14:22:55;5.90;;;2.80;;
3197;SDS011;1611;49.394;11.136;2023-11-21T14:25:22;3.00;;;2.80;;
3197;SDS011;1611;49.394;11.136;2023-11-21T14:27:49;4.43;;;3.30;;
3197;SDS011;1611;49.394;11.136;2023-11-21T14:30:18;4.47;;;3.07;;
3197;SDS011;1611;49.394;11.136;2023-11-21T14:32:47;5.00;;;3.47;;
3197;SDS011;1611;49.394;11.136;2023-11-21T14:35:14;3.37;;;3.00;;
3197;SDS011;1611;49.394;11.136;2023-11-21T14:37:41;7.37;;;3.70;;
3197;SDS011;1611;49.394;11.136;2023-11-21T14:40:08;3.40;;;3.10;;
3197;SDS011;1611;49.394;11.136;2023-11-21T14:42:36;3.40;;;3.10;;
3197;SDS011;1611;49.394;11.136;2023-11-21T14:45:05;9.73;;;3.33;;
3197;SDS011;1611;49.394;11.136;2023-11-21T14:47:34;4.03;;;3.60;;
3197;SDS011;1611;49.394;11.136;2023-11-21T14:50:07;4.03;;;2.80;;
3197;SDS011;1611;49.394;11.136;2023-11-21T14:52:58;5.23;;;3.30;;
3197;SDS011;1611;49.394;11.136;2023-11-21T14:55:24;6.20;;;3.60;;
3197;SDS011;1611;49.394;11.136;2023-11-21T14:57:56;4.97;;;4.23;;
3197;SDS011;1611;49.394;11.136;2023-11-21T15:00:25;4.90;;;3.70;;
3197;SDS011;1611;49.394;11.136;2023-11-21T15:03:11;5.57;;;3.90;;
3197;SDS011;1611;49.394;11.136;2023-11-21T15:05:56;5.73;;;3.30;;
3197;SDS011;1611;49.394;11.136;2023-11-21T15:08:23;4.80;;;3.50;;